Time;durP1;ratioP1;P1;durP2;ratioP2;P2;SDS_P1;SDS_P2;PMS_P1;PMS_P2;Temp;Humidity;BMP_temperature;BMP_pressure;BME280_temperature;BME280_humidity;BME280_pressure;Samples;Min_cycle;Max_cycle;Signal;HPM_P1;HPM_P2
2023/04/05 08:09:09;;;;;;;27.73;12.38;;;5.10;95.10;;;;;;5070540;28;20379;-79
2023/04/05 08:11:35;;;;;;;23.25;10.75;;;5.20;93.30;;;;;;5085946;28;20160;-76
2023/04/05 08:14:01;;;;;;;40.70;15.85;;;5.30;92.30;;;;;;5089352;28;20476;-77
2023/04/05 08:16:27;;;;;;;20.75;8.05;;;5.50;94.50;;;;;;5090976;28;20473;-74
2023/04/05 08:18:52;;;;;;;24.48;11.15;;;5.60;91.00;;;;;;5090970;28;20106;-76
2023/04/05 08:21:18;;;;;;;39.55;15.77;;;5.70;90.70;;;;;;5091060;28;20107;-76
2023/04/05 08:23:44;;;;;;;32.20;11.70;;;6.00;89.80;;;;;;5090815;28;20141;-76
2023/04/05 08:26:10;;;;;;;20.48;9.88;;;6.10;86.10;;;;;;5076052;28;20029;-74
2023/04/05 08:28:35;;;;;;;22.83;10.10;;;6.00;87.10;;;;;;5088474;28;20024;-76
2023/04/05 08:31:01;;;;;;;24.00;10.25;;;6.20;87.90;;;;;;5090473;28;20033;-77
2023/04/05 08:33:29;;;;;;;28.85;14.05;;;6.40;85.00;;;;;;5090984;28;20031;-78
2023/04/05 08:35:56;;;;;;;35.58;15.15;;;6.20;83.60;;;;;;5089717;28;20027;-76
2023/04/05 08:38:22;;;;;;;14.93;7.55;;;6.30;81.80;;;;;;5089323;28;20062;-74
2023/04/05 08:40:48;;;;;;;23.70;11.02;;;6.40;81.50;;;;;;5090799;28;20017;-73
2023/04/05 08:43:38;;;;;;;19.58;10.23;;;6.50;80.80;;;;;;5090601;28;20028;-74
2023/04/05 08:46:07;;;;;;;22.50;10.93;;;6.50;81.20;;;;;;5090620;28;20476;-76
2023/04/05 08:48:37;;;;;;;20.33;11.18;;;6.90;80.80;;;;;;5090662;28;20455;-75
2023/04/05 08:51:03;;;;;;;13.88;7.30;;;6.60;79.40;;;;;;5090287;28;20039;-77
2023/04/05 08:53:29;;;;;;;22.35;12.98;;;6.50;76.90;;;;;;5089303;28;20115;-76
2023/04/05 08:55:56;;;;;;;12.95;6.85;;;6.80;81.40;;;;;;5090560;28;20085;-76
2023/04/05 08:58:24;;;;;;;16.88;7.60;;;7.00;76.30;;;;;;5090191;28;20024;-76
2023/04/05 09:00:51;;;;;;;17.55;7.38;;;7.20;76.30;;;;;;5090404;28;20021;-79
2023/04/05 09:03:27;;;;;;;15.77;7.35;;;7.30;76.10;;;;;;5075043;28;20047;-76
2023/04/05 09:05:55;;;;;;;22.95;10.60;;;7.20;74.50;;;;;;5087369;28;20021;-79
2023/04/05 09:08:21;;;;;;;13.43;7.25;;;7.80;77.70;;;;;;5069922;28;20367;-80
2023/04/05 09:10:52;;;;;;;18.75;9.65;;;7.60;73.90;;;;;;5089176;28;20020;-79
2023/04/05 09:13:18;;;;;;;45.38;17.23;;;7.50;75.40;;;;;;5089911;28;20057;-79
2023/04/05 09:15:45;;;;;;;26.48;12.02;;;6.80;74.10;;;;;;5089890;28;20119;-80
2023/04/05 09:18:11;;;;;;;14.95;7.30;;;6.50;77.10;;;;;;5090057;28;20035;-79
2023/04/05 09:20:37;;;;;;;15.18;7.85;;;6.90;74.00;;;;;;5074298;28;20024;-80
2023/04/05 09:23:03;;;;;;;23.45;9.77;;;7.30;73.50;;;;;;5076513;28;20100;-78
2023/04/05 09:25:35;;;;;;;22.15;10.90;;;7.30;73.30;;;;;;5074867;28;20021;-76
2023/04/05 09:28:04;;;;;;;18.70;9.57;;;7.30;71.70;;;;;;5076239;28;20021;-82
2023/04/05 09:30:31;;;;;;;21.63;10.00;;;7.70;71.90;;;;;;5076663;28;20060;-78
2023/04/05 09:32:57;;;;;;;47.67;14.18;;;7.30;72.70;;;;;;5076328;28;20055;-75
2023/04/05 09:35:24;;;;;;;29.55;12.85;;;7.70;71.10;;;;;;5076314;28;20093;-78
2023/04/05 09:37:55;;;;;;;19.15;10.57;;;7.60;72.00;;;;;;5076578;28;20115;-77
2023/04/05 09:40:21;;;;;;;49.08;22.42;;;7.90;73.90;;;;;;5075792;28;20074;-77
2023/04/05 09:42:47;;;;;;;20.95;9.13;;;7.60;74.90;;;;;;5076028;28;20025;-78
2023/04/05 09:45:19;;;;;;;16.88;8.25;;;7.60;70.90;;;;;;5075909;28;20024;-76
2023/04/05 09:47:55;;;;;;;19.40;9.13;;;7.80;71.10;;;;;;5075553;28;20053;-77
2023/04/05 09:50:21;;;;;;;21.30;9.68;;;7.80;70.40;;;;;;5075883;28;20409;-77
2023/04/05 09:52:48;;;;;;;16.85;9.07;;;7.90;70.40;;;;;;5076335;28;20028;-77
2023/04/05 09:55:25;;;;;;;18.52;8.65;;;8.00;69.90;;;;;;5074456;28;20029;-78
2023/04/05 09:57:50;;;;;;;12.13;6.57;;;8.10;67.70;;;;;;5075947;28;20032;-80
2023/04/05 10:00:18;;;;;;;21.35;9.85;;;8.00;66.00;;;;;;5075511;28;20021;-76
2023/04/05 10:02:46;;;;;;;21.95;10.25;;;7.60;70.10;;;;;;5068755;28;20463;-79
2023/04/05 10:05:14;;;;;;;21.10;8.20;;;7.40;68.10;;;;;;5075753;28;20382;-80
2023/04/05 10:07:43;;;;;;;20.02;9.95;;;7.70;68.20;;;;;;5075238;28;20102;-80
2023/04/05 10:10:11;;;;;;;75.80;18.80;;;7.80;67.30;;;;;;5074362;28;20024;-79
2023/04/05 10:12:40;;;;;;;19.60;9.85;;;7.70;67.50;;;;;;5075784;28;20021;-80
2023/04/05 10:15:10;;;;;;;25.88;11.95;;;7.60;67.60;;;;;;5056916;28;20033;-80
2023/04/05 10:17:54;;;;;;;38.15;15.75;;;7.50;67.80;;;;;;5071337;28;20029;-80
2023/04/05 10:20:24;;;;;;;33.65;15.82;;;8.00;75.40;;;;;;5074151;28;20028;-81
2023/04/05 10:23:12;;;;;;;26.50;11.48;;;7.80;69.30;;;;;;5075402;28;20052;-81
2023/04/05 10:25:51;;;;;;;21.52;9.75;;;7.40;70.00;;;;;;5075040;28;20020;-78
2023/04/05 10:28:38;;;;;;;18.75;8.90;;;7.70;70.30;;;;;;5074572;28;20039;-81
2023/04/05 10:31:22;;;;;;;27.58;11.65;;;7.40;67.10;;;;;;5073952;28;20447;-80
2023/04/05 10:34:03;;;;;;;24.25;11.23;;;7.40;70.90;;;;;;5075233;28;20064;-78
2023/04/05 10:36:43;;;;;;;27.38;12.80;;;7.10;71.10;;;;;;5074843;28;20070;-83
2023/04/05 10:39:29;;;;;;;19.80;9.85;;;6.90;70.50;;;;;;5074946;28;20032;-78
2023/04/05 10:42:17;;;;;;;25.75;12.20;;;6.90;69.30;;;;;;5074993;28;20024;-77
2023/04/05 10:44:50;;;;;;;28.88;12.00;;;7.00;69.10;;;;;;5074512;28;20451;-82
2023/04/05 10:47:18;;;;;;;26.17;11.60;;;7.00;70.80;;;;;;5074886;28;20039;-83
2023/04/05 10:49:49;;;;;;;21.40;10.18;;;7.10;69.30;;;;;;5074510;28;20021;-83
2023/04/05 10:52:16;;;;;;;16.95;9.23;;;7.40;69.40;;;;;;5074815;28;20021;-81
2023/04/05 10:54:43;;;;;;;20.30;10.38;;;7.30;68.90;;;;;;5073844;28;20024;-78
2023/04/05 10:57:10;;;;;;;73.22;29.92;;;7.50;69.00;;;;;;5074685;28;20524;-77
2023/04/05 10:59:41;;;;;;;21.98;9.35;;;7.70;69.30;;;;;;5074625;28;20546;-81
2023/04/05 11:02:08;;;;;;;15.80;7.25;;;7.40;66.10;;;;;;5066006;28;20028;-83
2023/04/05 11:04:34;;;;;;;26.80;12.48;;;7.30;68.80;;;;;;5064701;28;20037;-79
2023/04/05 11:07:19;;;;;;;20.88;9.85;;;7.20;67.90;;;;;;5066420;28;20029;-83
2023/04/05 11:10:03;;;;;;;18.30;9.63;;;7.00;65.90;;;;;;5061322;28;20055;-82
2023/04/05 11:12:48;;;;;;;15.20;7.25;;;6.90;69.10;;;;;;5071692;28;20028;-81
2023/04/05 11:15:31;;;;;;;20.42;10.05;;;6.80;69.50;;;;;;5058660;28;20032;-80
2023/04/05 11:18:06;;;;;;;17.58;7.85;;;6.70;68.50;;;;;;5072788;28;20082;-79
2023/04/05 11:21:03;;;;;;;25.83;10.35;;;6.40;67.40;;;;;;5073899;28;20082;-79
2023/04/05 11:23:30;;;;;;;14.02;8.35;;;6.40;69.30;;;;;;5074049;28;20024;-80
2023/04/05 11:26:03;;;;;;;20.52;9.40;;;6.30;70.30;;;;;;5062304;28;20067;-84
2023/04/05 11:28:36;;;;;;;15.75;8.50;;;6.20;69.50;;;;;;5074220;28;20202;-82
2023/04/05 11:31:21;;;;;;;12.45;6.78;;;6.10;70.00;;;;;;5074291;28;20067;-83
2023/04/05 11:33:47;;;;;;;16.00;8.88;;;6.10;68.70;;;;;;5074092;28;20020;-80
2023/04/05 11:36:27;;;;;;;13.82;7.15;;;6.00;68.00;;;;;;5074045;28;20027;-80
2023/04/05 11:39:22;;;;;;;17.25;8.07;;;6.00;67.60;;;;;;5073384;28;20029;-79
2023/04/05 11:42:01;;;;;;;20.98;9.10;;;6.10;68.70;;;;;;5073072;28;20336;-81
2023/04/05 11:44:30;;;;;;;24.75;10.63;;;6.20;70.70;;;;;;5072756;28;20378;-84
2023/04/05 11:46:56;;;;;;;26.42;11.40;;;6.30;70.90;;;;;;5066014;28;20029;-83
2023/04/05 11:49:23;;;;;;;22.95;11.85;;;6.20;70.60;;;;;;5053436;28;20025;-84
2023/04/05 11:51:51;;;;;;;37.28;17.30;;;6.00;69.00;;;;;;5059163;28;20085;-81
2023/04/05 11:54:29;;;;;;;25.58;11.93;;;6.00;69.80;;;;;;5073592;28;20021;-82
2023/04/05 11:56:55;;;;;;;34.60;14.82;;;6.00;68.70;;;;;;5058330;28;20039;-83
2023/04/05 11:59:28;;;;;;;24.63;10.57;;;6.10;69.20;;;;;;5052483;28;20483;-81
2023/04/05 12:02:02;;;;;;;27.40;11.95;;;6.00;69.50;;;;;;5052428;28;20025;-80
2023/04/05 12:04:28;;;;;;;28.83;13.68;;;6.10;69.90;;;;;;5072795;28;20131;-81
2023/04/05 12:07:16;;;;;;;41.70;15.02;;;6.10;70.10;;;;;;5073127;28;20463;-82
2023/04/05 12:10:02;;;;;;;34.10;14.98;;;6.00;70.10;;;;;;5058258;28;20025;-81
2023/04/05 12:12:42;;;;;;;25.50;12.52;;;6.00;69.50;;;;;;5056367;28;20032;-80
2023/04/05 12:15:10;;;;;;;22.23;10.98;;;6.00;68.80;;;;;;5052822;28;20020;-81
2023/04/05 12:17:44;;;;;;;21.92;10.00;;;6.10;70.80;;;;;;5052477;28;20032;-82
2023/04/05 12:20:13;;;;;;;17.92;9.05;;;6.20;69.00;;;;;;5062130;28;20401;-79
2023/04/05 12:22:41;;;;;;;15.77;8.45;;;6.20;68.60;;;;;;5073651;28;20028;-84
2023/04/05 12:25:07;;;;;;;17.75;8.13;;;6.20;69.30;;;;;;5072389;28;20097;-82
2023/04/05 12:27:34;;;;;;;22.73;9.65;;;6.20;68.30;;;;;;5072050;28;20105;-79
2023/04/05 12:30:14;;;;;;;20.60;8.88;;;6.20;70.70;;;;;;5070618;28;20028;-82
2023/04/05 12:32:45;;;;;;;16.23;7.80;;;6.10;68.70;;;;;;5033645;28;20029;-78
2023/04/05 12:35:34;;;;;;;19.77;8.40;;;6.10;70.10;;;;;;5053988;28;20452;-80
2023/04/05 12:38:06;;;;;;;34.35;14.68;;;6.10;67.60;;;;;;5070721;28;20339;-81
2023/04/05 12:40:36;;;;;;;16.52;8.52;;;6.20;70.50;;;;;;5067526;28;20024;-80
2023/04/05 12:43:04;;;;;;;27.42;10.85;;;6.10;67.50;;;;;;5050563;28;20110;-81
2023/04/05 12:45:38;;;;;;;27.13;11.32;;;6.10;66.90;;;;;;5059179;28;20032;-84
2023/04/05 12:48:27;;;;;;;21.45;10.38;;;6.20;66.80;;;;;;5060950;28;20509;-83
2023/04/05 12:50:53;;;;;;;22.58;9.23;;;6.30;67.70;;;;;;5065570;28;20380;-82
2023/04/05 12:53:27;;;;;;;28.98;12.68;;;6.50;68.00;;;;;;5072035;28;20068;-82
2023/04/05 12:56:00;;;;;;;25.38;11.85;;;6.60;68.40;;;;;;5077013;28;20089;-81
2023/04/05 12:58:36;;;;;;;25.42;11.25;;;6.70;67.30;;;;;;5075766;28;20032;-83
2023/04/05 13:01:02;;;;;;;23.63;10.63;;;6.80;68.80;;;;;;5076831;28;20017;-83
2023/04/05 13:03:28;;;;;;;23.40;9.48;;;6.80;66.90;;;;;;5056175;28;20460;-83
2023/04/05 13:05:54;;;;;;;22.52;10.20;;;6.90;68.30;;;;;;5073011;28;20028;-85
2023/04/05 13:08:20;;;;;;;36.65;16.85;;;6.70;64.60;;;;;;5076723;28;20047;-82
2023/04/05 13:10:47;;;;;;;26.33;11.63;;;6.60;65.60;;;;;;5075352;28;20469;-84
2023/04/05 13:13:14;;;;;;;22.25;12.50;;;6.60;67.20;;;;;;5069978;28;20460;-83
2023/04/05 13:15:40;;;;;;;21.23;10.13;;;6.50;66.40;;;;;;5062049;28;20022;-86
2023/04/05 13:18:06;;;;;;;30.30;13.38;;;6.40;67.00;;;;;;5076008;28;20024;-80
2023/04/05 13:20:31;;;;;;;33.75;14.40;;;6.40;68.60;;;;;;5060318;28;20028;-82
2023/04/05 13:22:57;;;;;;;52.30;19.73;;;6.10;68.00;;;;;;5074779;28;20166;-82
2023/04/05 13:25:23;;;;;;;72.97;29.85;;;6.10;69.70;;;;;;5076218;28;20021;-86
2023/04/05 13:27:49;;;;;;;40.22;18.70;;;6.10;72.40;;;;;;5075228;28;20044;-83
2023/04/05 13:30:15;;;;;;;30.92;15.98;;;5.90;69.80;;;;;;5076038;28;20043;-82
2023/04/05 13:32:41;;;;;;;38.03;18.10;;;5.90;71.60;;;;;;5075104;28;20043;-80
2023/04/05 13:35:07;;;;;;;48.90;21.52;;;5.90;70.60;;;;;;5076096;28;20032;-81
2023/04/05 13:37:33;;;;;;;55.70;24.10;;;6.00;72.40;;;;;;5076480;28;20028;-83
2023/04/05 13:39:59;;;;;;;44.13;20.98;;;6.10;73.50;;;;;;5055595;28;20119;-84
2023/04/05 13:42:25;;;;;;;37.80;18.75;;;6.00;71.50;;;;;;5073146;28;20055;-83
2023/04/05 13:44:50;;;;;;;98.25;36.50;;;6.10;72.40;;;;;;5075895;28;20028;-83
2023/04/05 13:47:16;;;;;;;73.13;30.10;;;6.20;74.40;;;;;;5076100;28;20068;-81
2023/04/05 13:49:42;;;;;;;43.67;18.52;;;6.30;73.30;;;;;;5058138;28;20028;-81
2023/04/05 13:52:08;;;;;;;26.35;13.75;;;6.30;70.00;;;;;;5076048;28;20103;-81
2023/04/05 13:54:34;;;;;;;34.15;16.55;;;6.30;67.80;;;;;;5074804;28;20049;-83
2023/04/05 13:57:00;;;;;;;27.33;13.77;;;6.40;68.70;;;;;;5074719;28;20036;-84
2023/04/05 13:59:26;;;;;;;24.95;12.93;;;6.30;67.80;;;;;;5074135;28;20039;-84
2023/04/05 14:01:51;;;;;;;32.35;14.68;;;6.40;67.80;;;;;;5069107;28;20475;-84
2023/04/05 14:04:17;;;;;;;64.38;21.80;;;6.40;68.10;;;;;;5068245;28;20073;-81
2023/04/05 14:06:44;;;;;;;47.33;20.30;;;6.40;68.50;;;;;;5069263;28;20025;-79
2023/04/05 14:09:10;;;;;;;39.63;17.35;;;6.60;70.40;;;;;;5054230;28;20057;-82
2023/04/05 14:11:36;;;;;;;38.83;18.02;;;6.60;68.30;;;;;;5059303;28;20024;-82
2023/04/05 14:14:02;;;;;;;43.97;17.65;;;6.70;69.90;;;;;;5062666;28;20363;-81
2023/04/05 14:16:28;;;;;;;55.72;21.33;;;6.70;68.00;;;;;;5075329;28;20021;-82
2023/04/05 14:18:54;;;;;;;66.22;25.15;;;6.80;68.00;;;;;;5074176;28;20029;-84
2023/04/05 14:21:20;;;;;;;32.65;15.57;;;6.90;68.10;;;;;;5075433;28;20064;-81
2023/04/05 14:23:49;;;;;;;37.42;16.40;;;6.90;68.40;;;;;;5074185;28;20024;-82
2023/04/05 14:26:15;;;;;;;34.17;15.82;;;7.00;67.90;;;;;;5069470;28;20119;-81
2023/04/05 14:28:41;;;;;;;40.53;17.88;;;7.00;67.70;;;;;;5075224;28;20528;-79
2023/04/05 14:31:06;;;;;;;61.38;23.77;;;7.10;67.40;;;;;;5073890;28;20055;-85
2023/04/05 14:33:32;;;;;;;48.13;20.52;;;7.10;68.30;;;;;;5074928;28;20020;-84
2023/04/05 14:35:58;;;;;;;31.80;13.55;;;7.10;66.90;;;;;;5075487;28;20043;-81
2023/04/05 14:38:24;;;;;;;23.27;10.85;;;7.20;66.70;;;;;;5067555;28;20052;-85
2023/04/05 14:40:49;;;;;;;47.35;23.38;;;7.30;67.40;;;;;;5068107;28;20032;-83
2023/04/05 14:43:15;;;;;;;22.30;11.23;;;7.30;67.50;;;;;;5074699;28;20020;-83
2023/04/05 14:45:41;;;;;;;31.00;13.45;;;7.30;63.80;;;;;;5074948;28;20041;-82
2023/04/05 14:48:07;;;;;;;47.17;19.00;;;7.20;64.70;;;;;;5067328;28;20121;-80
2023/04/05 14:50:32;;;;;;;52.90;21.10;;;7.10;65.20;;;;;;5057044;28;20023;-85
2023/04/05 14:53:00;;;;;;;62.45;26.90;;;6.90;64.70;;;;;;5073742;28;20024;-85
2023/04/05 14:55:26;;;;;;;42.92;21.95;;;6.90;65.80;;;;;;5074499;28;20025;-84
2023/04/05 14:57:52;;;;;;;48.03;24.30;;;7.00;67.20;;;;;;5074485;28;20039;-87
2023/04/05 15:00:18;;;;;;;41.00;21.23;;;6.90;65.90;;;;;;5074326;28;20370;-82
2023/04/05 15:02:45;;;;;;;32.38;16.35;;;6.90;67.90;;;;;;5071196;28;20020;-83
2023/04/05 15:05:10;;;;;;;31.05;15.10;;;7.00;69.10;;;;;;5073297;28;20024;-84
2023/04/05 15:07:36;;;;;;;43.20;17.58;;;6.90;66.60;;;;;;5073080;28;20104;-82
2023/04/05 15:10:02;;;;;;;51.47;22.30;;;7.00;68.10;;;;;;5073950;28;20412;-82
2023/04/05 15:12:28;;;;;;;48.78;21.15;;;6.90;67.30;;;;;;5074771;28;20021;-81
2023/04/05 15:14:54;;;;;;;58.33;23.30;;;6.80;66.40;;;;;;5071988;28;20039;-81
2023/04/05 15:17:20;;;;;;;29.10;14.00;;;6.80;68.20;;;;;;5054487;28;20036;-80
2023/04/05 15:19:46;;;;;;;25.13;11.60;;;6.70;68.00;;;;;;5072019;28;20028;-80
2023/04/05 15:22:13;;;;;;;43.13;20.75;;;6.80;66.70;;;;;;5071696;28;20024;-80
2023/04/05 15:24:42;;;;;;;36.83;16.92;;;6.70;67.60;;;;;;5071999;28;20055;-83
2023/04/05 15:27:10;;;;;;;65.43;31.60;;;6.60;67.40;;;;;;5071840;28;20028;-81
2023/04/05 15:29:36;;;;;;;40.47;21.13;;;6.70;68.40;;;;;;5054750;28;20028;-83
2023/04/05 15:32:02;;;;;;;37.50;18.58;;;6.60;68.80;;;;;;5071994;28;20024;-84
2023/04/05 15:34:29;;;;;;;41.38;17.75;;;6.60;67.50;;;;;;5054950;28;20033;-83
2023/04/05 15:36:55;;;;;;;24.48;13.13;;;6.50;65.40;;;;;;5060525;28;20099;-81
2023/04/05 15:39:22;;;;;;;26.63;14.60;;;6.50;65.20;;;;;;5051030;28;20402;-79
2023/04/05 15:41:48;;;;;;;23.60;12.95;;;6.50;66.00;;;;;;5053258;28;20033;-80
2023/04/05 15:44:14;;;;;;;40.53;18.83;;;6.50;67.00;;;;;;5035515;28;20455;-82
2023/04/05 15:46:40;;;;;;;34.63;16.33;;;6.50;68.10;;;;;;5049597;28;20474;-82
2023/04/05 15:49:06;;;;;;;72.75;27.05;;;6.40;69.10;;;;;;5051846;28;20044;-82
2023/04/05 15:51:34;;;;;;;33.47;15.32;;;6.50;69.20;;;;;;5052957;28;20025;-85
2023/04/05 15:54:00;;;;;;;40.75;19.42;;;6.30;67.20;;;;;;5053054;28;20067;-84
2023/04/05 15:56:28;;;;;;;55.60;25.20;;;6.30;68.40;;;;;;5055515;28;20032;-81
2023/04/05 15:58:54;;;;;;;52.80;24.67;;;6.30;69.70;;;;;;5064041;28;20048;-83
2023/04/05 16:01:21;;;;;;;29.75;14.68;;;6.30;69.10;;;;;;5069771;28;20033;-81
2023/04/05 16:03:47;;;;;;;50.75;23.00;;;6.20;65.80;;;;;;5059735;28;20020;-82
2023/04/05 16:06:12;;;;;;;54.38;21.58;;;6.20;67.70;;;;;;5057800;28;20103;-84
2023/04/05 16:08:38;;;;;;;36.03;16.65;;;6.20;68.40;;;;;;5052998;28;20056;-83
2023/04/05 16:11:07;;;;;;;50.50;20.20;;;6.10;67.60;;;;;;5067729;28;20025;-82
2023/04/05 16:13:34;;;;;;;32.55;16.33;;;6.10;69.00;;;;;;5055450;28;20021;-83
2023/04/05 16:15:59;;;;;;;44.08;18.50;;;6.00;67.50;;;;;;5066152;28;20029;-80
2023/04/05 16:18:28;;;;;;;45.15;21.15;;;5.90;67.80;;;;;;5071878;28;20028;-84
2023/04/05 16:20:54;;;;;;;51.45;22.95;;;5.90;68.50;;;;;;5061091;28;20017;-81
2023/04/05 16:23:20;;;;;;;57.65;24.80;;;5.90;69.20;;;;;;5055286;28;20075;-83
2023/04/05 16:25:46;;;;;;;52.15;23.50;;;5.90;71.60;;;;;;5054979;28;20112;-81
2023/04/05 16:28:12;;;;;;;59.55;26.10;;;5.90;70.70;;;;;;5052617;28;20028;-83
2023/04/05 16:30:37;;;;;;;53.15;23.83;;;5.90;71.50;;;;;;5057286;28;20021;-82
2023/04/05 16:33:04;;;;;;;48.53;20.10;;;5.90;71.90;;;;;;5057260;28;20025;-79
2023/04/05 16:35:30;;;;;;;56.90;24.52;;;5.90;70.90;;;;;;5056202;28;20486;-83
2023/04/05 16:37:57;;;;;;;62.45;28.50;;;5.80;72.00;;;;;;5057589;28;20025;-80
2023/04/05 16:40:23;;;;;;;62.42;27.08;;;5.80;74.80;;;;;;5064089;28;20017;-82
2023/04/05 16:42:49;;;;;;;59.20;26.25;;;5.70;72.30;;;;;;5065101;28;20478;-83
2023/04/05 16:45:15;;;;;;;47.22;22.58;;;5.70;72.20;;;;;;5075897;28;20052;-83
2023/04/05 16:47:41;;;;;;;92.72;38.22;;;5.60;72.20;;;;;;5075421;28;20044;-84
2023/04/05 16:50:07;;;;;;;207.77;75.32;;;5.60;73.40;;;;;;5074447;28;20033;-82
2023/04/05 16:52:33;;;;;;;91.40;38.45;;;5.60;74.60;;;;;;5058038;28;20487;-82
2023/04/05 16:54:59;;;;;;;55.08;26.13;;;5.60;75.30;;;;;;5046916;28;20037;-81
2023/04/05 16:57:25;;;;;;;51.88;23.05;;;5.50;75.40;;;;;;5053193;28;20025;-81
2023/04/05 16:59:51;;;;;;;66.38;26.58;;;5.50;75.10;;;;;;5039316;28;20165;-80
2023/04/05 17:02:16;;;;;;;50.65;23.23;;;5.40;77.00;;;;;;5044177;28;20038;-82
2023/04/05 17:04:45;;;;;;;53.78;25.48;;;5.30;75.70;;;;;;5037379;28;20021;-82
2023/04/05 17:07:11;;;;;;;66.22;30.65;;;5.30;77.20;;;;;;5065061;28;20080;-81
2023/04/05 17:09:37;;;;;;;77.20;31.98;;;5.30;76.80;;;;;;5054320;28;20179;-81
2023/04/05 17:12:03;;;;;;;82.65;35.92;;;5.30;78.60;;;;;;5051831;28;20078;-82
2023/04/05 17:14:30;;;;;;;83.97;38.85;;;5.20;80.40;;;;;;5057236;28;20710;-79
2023/04/05 17:16:55;;;;;;;152.85;65.32;;;5.10;81.30;;;;;;5074454;28;20032;-81
2023/04/05 17:19:21;;;;;;;128.65;54.20;;;5.10;83.20;;;;;;5074050;28;20382;-79
2023/04/05 17:21:47;;;;;;;103.97;44.08;;;5.10;83.60;;;;;;5073765;28;20379;-80
2023/04/05 17:24:16;;;;;;;76.05;35.25;;;5.00;83.30;;;;;;5057274;28;20343;-80
2023/04/05 17:26:42;;;;;;;77.85;35.28;;;5.00;85.40;;;;;;5056238;28;20045;-80
2023/04/05 17:29:07;;;;;;;71.68;34.17;;;5.00;87.40;;;;;;5071254;28;20094;-81
2023/04/05 17:31:34;;;;;;;71.10;33.22;;;4.90;89.50;;;;;;5076249;28;20415;-83
2023/04/05 17:34:00;;;;;;;69.53;30.10;;;4.90;91.00;;;;;;5074932;28;20021;-83
2023/04/05 17:36:26;;;;;;;101.88;47.25;;;4.90;92.80;;;;;;5075829;28;20081;-81
2023/04/05 17:38:53;;;;;;;92.95;44.58;;;4.90;92.90;;;;;;5075904;28;20497;-83
2023/04/05 17:41:18;;;;;;;91.47;43.28;;;4.90;94.90;;;;;;5074244;28;20066;-82
2023/04/05 17:43:45;;;;;;;99.63;43.80;;;4.80;96.70;;;;;;5074451;28;20020;-82
2023/04/05 17:46:13;;;;;;;122.47;54.25;;;4.80;98.20;;;;;;5074679;28;20020;-83
2023/04/05 17:48:39;;;;;;;90.32;40.85;;;4.70;99.90;;;;;;5074531;28;20081;-81
2023/04/05 17:51:08;;;;;;;98.47;40.85;;;4.70;99.90;;;;;;5075346;28;20113;-83
2023/04/05 17:53:34;;;;;;;85.90;38.95;;;4.60;99.90;;;;;;5075851;28;20025;-81
2023/04/05 17:56:00;;;;;;;61.63;29.00;;;4.60;99.90;;;;;;5074497;28;20039;-81
2023/04/05 17:58:29;;;;;;;124.22;53.60;;;4.60;99.90;;;;;;5075316;28;20028;-83
2023/04/05 18:00:54;;;;;;;249.32;104.40;;;4.60;99.90;;;;;;5074382;28;20030;-82
2023/04/05 18:03:20;;;;;;;145.90;67.30;;;4.50;99.90;;;;;;5054283;28;20033;-84
2023/04/05 18:05:53;;;;;;;49.97;26.02;;;4.50;99.90;;;;;;5055369;28;20025;-81
2023/04/05 18:08:20;;;;;;;56.70;29.38;;;4.50;99.90;;;;;;5064972;28;20048;-82
2023/04/05 18:10:46;;;;;;;46.05;24.38;;;4.40;99.90;;;;;;5067484;28;20033;-81
2023/04/05 18:13:12;;;;;;;41.97;22.50;;;4.40;99.90;;;;;;5075935;28;20344;-81
2023/04/05 18:15:38;;;;;;;42.15;20.45;;;4.40;99.90;;;;;;5075161;28;20023;-80
2023/04/05 18:18:05;;;;;;;41.05;20.45;;;4.30;99.90;;;;;;5075362;28;20035;-84
2023/04/05 18:20:31;;;;;;;44.05;20.92;;;4.30;99.90;;;;;;5069870;28;20071;-83
2023/04/05 18:22:58;;;;;;;45.33;21.67;;;4.30;99.90;;;;;;5075481;28;20032;-83
2023/04/05 18:25:25;;;;;;;50.20;24.65;;;4.30;99.90;;;;;;5064757;28;20036;-83
2023/04/05 18:27:50;;;;;;;43.80;22.80;;;4.30;99.90;;;;;;5055542;28;20123;-83
2023/04/05 18:30:16;;;;;;;36.45;19.58;;;4.20;99.90;;;;;;5066491;28;20450;-82
2023/04/05 18:32:43;;;;;;;37.75;20.30;;;4.10;99.90;;;;;;5065920;28;20025;-83
2023/04/05 18:35:09;;;;;;;39.13;20.65;;;4.10;99.90;;;;;;5060427;28;20035;-82
2023/04/05 18:37:35;;;;;;;39.97;19.50;;;4.10;99.90;;;;;;5069055;28;20024;-83
2023/04/05 18:40:04;;;;;;;42.67;21.95;;;4.10;99.90;;;;;;5053743;28;20087;-82
2023/04/05 18:42:34;;;;;;;61.88;27.40;;;4.10;99.90;;;;;;5073641;28;20025;-81
2023/04/05 18:45:00;;;;;;;59.00;26.20;;;4.00;99.90;;;;;;5057162;28;20025;-81
2023/04/05 18:47:26;;;;;;;111.95;42.33;;;4.00;99.90;;;;;;5068671;28;20489;-81
2023/04/05 18:49:53;;;;;;;95.05;38.92;;;4.00;99.90;;;;;;5073521;28;20367;-81
2023/04/05 18:52:22;;;;;;;81.03;31.08;;;4.00;99.90;;;;;;5072206;28;20025;-83
2023/04/05 18:54:48;;;;;;;77.30;32.17;;;4.00;99.90;;;;;;5073051;28;20028;-82
2023/04/05 18:57:14;;;;;;;92.30;37.03;;;4.00;99.90;;;;;;5058900;28;20028;-81
2023/04/05 18:59:40;;;;;;;77.22;34.90;;;3.90;99.90;;;;;;5072938;28;20378;-83
2023/04/05 19:02:06;;;;;;;71.30;31.38;;;3.90;99.90;;;;;;5073350;28;20051;-80
2023/04/05 19:04:31;;;;;;;66.35;30.38;;;3.90;99.90;;;;;;5073370;28;20056;-81
2023/04/05 19:06:57;;;;;;;68.38;34.17;;;3.90;99.90;;;;;;5070868;28;20036;-81
2023/04/05 19:09:25;;;;;;;69.38;32.55;;;3.90;99.90;;;;;;5074112;28;20032;-82
2023/04/05 19:11:51;;;;;;;56.88;25.63;;;3.90;99.90;;;;;;5073066;28;20059;-82
2023/04/05 19:14:17;;;;;;;66.50;30.08;;;3.80;99.90;;;;;;5073885;28;20021;-81
2023/04/05 19:16:43;;;;;;;120.40;47.88;;;3.90;99.90;;;;;;5069323;28;20025;-81
2023/04/05 19:19:08;;;;;;;91.80;40.17;;;3.90;99.90;;;;;;5053240;28;20494;-81
2023/04/05 19:21:34;;;;;;;74.88;29.52;;;3.90;99.90;;;;;;5053777;28;20033;-82
2023/04/05 19:24:00;;;;;;;92.10;36.92;;;3.90;99.90;;;;;;5053894;28;20029;-82
2023/04/05 19:26:26;;;;;;;177.50;70.47;;;3.90;99.90;;;;;;5053443;28;20043;-83
2023/04/05 19:28:51;;;;;;;143.98;59.13;;;3.90;99.90;;;;;;5056258;28;20398;-83
2023/04/05 19:31:17;;;;;;;110.18;45.50;;;3.90;99.90;;;;;;5060393;28;20021;-81
2023/04/05 19:33:45;;;;;;;204.50;80.15;;;3.90;99.90;;;;;;5063918;28;20029;-81
2023/04/05 19:36:11;;;;;;;304.23;120.68;;;3.90;99.90;;;;;;5070181;28;20028;-80
2023/04/05 19:38:38;;;;;;;309.15;131.90;;;3.90;99.90;;;;;;5052560;28;20033;-81
2023/04/05 19:41:04;;;;;;;176.82;68.80;;;4.00;99.90;;;;;;5068108;28;20044;-81
2023/04/05 19:43:31;;;;;;;325.60;136.73;;;4.00;99.90;;;;;;5067987;28;20029;-80
2023/04/05 19:45:59;;;;;;;244.40;90.32;;;4.00;99.90;;;;;;5071806;28;20020;-82
2023/04/05 19:48:36;;;;;;;238.15;87.28;;;4.10;99.90;;;;;;5072046;28;20479;-83
2023/04/05 19:51:10;;;;;;;289.58;114.57;;;4.10;99.90;;;;;;5073997;28;20029;-83
2023/04/05 19:53:52;;;;;;;192.80;72.97;;;4.00;99.90;;;;;;5072848;28;20028;-81
2023/04/05 19:56:25;;;;;;;162.25;62.20;;;4.10;99.90;;;;;;5072014;28;20478;-80
2023/04/05 19:58:53;;;;;;;134.05;56.90;;;4.10;99.90;;;;;;5041612;28;20041;-80
2023/04/05 20:01:25;;;;;;;102.50;44.63;;;4.10;99.90;;;;;;5072254;28;20473;-80
2023/04/05 20:03:51;;;;;;;119.28;48.65;;;4.10;99.90;;;;;;5071885;28;20020;-81
2023/04/05 20:06:17;;;;;;;100.30;40.45;;;4.00;99.90;;;;;;5071994;28;20428;-81
2023/04/05 20:08:44;;;;;;;111.13;42.60;;;4.00;99.90;;;;;;5051058;28;20045;-81
2023/04/05 20:11:20;;;;;;;130.93;49.90;;;4.00;99.90;;;;;;5065015;28;20077;-81
2023/04/05 20:13:54;;;;;;;119.45;50.53;;;4.00;99.90;;;;;;5060671;28;20029;-80
2023/04/05 20:16:35;;;;;;;101.95;45.55;;;3.90;99.90;;;;;;5056555;28;20017;-83
2023/04/05 20:19:09;;;;;;;98.82;42.83;;;3.90;99.90;;;;;;5056509;28;20064;-82
2023/04/05 20:21:39;;;;;;;109.53;47.05;;;3.90;99.90;;;;;;5058779;28;20029;-82
2023/04/05 20:24:10;;;;;;;99.28;44.42;;;3.80;99.90;;;;;;5064037;28;20085;-81
2023/04/05 20:26:36;;;;;;;;;;;3.80;99.90;;;;;;5057211;28;20044;-81
2023/04/05 20:29:05;;;;;;;111.97;48.40;;;3.80;99.90;;;;;;5072060;28;20250;-82
2023/04/05 20:31:35;;;;;;;108.70;48.63;;;3.80;99.90;;;;;;5072707;28;20101;-80
2023/04/05 20:34:12;;;;;;;89.32;41.45;;;3.80;99.90;;;;;;5073227;28;20032;-82
2023/04/05 20:36:50;;;;;;;75.28;33.95;;;3.70;99.90;;;;;;5056905;28;20028;-83
2023/04/05 20:39:16;;;;;;;101.38;46.35;;;3.70;99.90;;;;;;5065345;28;20368;-84
2023/04/05 20:41:42;;;;;;;117.90;52.38;;;3.70;99.90;;;;;;5073541;28;20048;-81
2023/04/05 20:44:08;;;;;;;133.65;56.65;;;3.70;99.90;;;;;;5072747;28;20070;-82
2023/04/05 20:46:34;;;;;;;119.32;52.75;;;3.70;99.90;;;;;;5073466;28;20025;-81
2023/04/05 20:49:00;;;;;;;110.40;44.80;;;3.70;99.90;;;;;;5071799;28;20028;-80
2023/04/05 20:51:25;;;;;;;111.25;46.83;;;3.60;99.90;;;;;;5072714;28;20067;-79
2023/04/05 20:53:52;;;;;;;96.43;41.95;;;3.70;99.90;;;;;;5073173;28;20168;-81